Alconbury RAF, United Kingdom

9:52 PM GMT on November 22, 2014 (GMT +0000)
Cambridgeshire | Change Station
CLOSE
Current Station
Personal Weather Station
Location: St Ives, CAMBRIDGESHIRE
Elevation: 95 ft
Nearby Weather Stations

Elev 95 ft 52.34 °N, 0.09 °W | Updated 13 minutes ago

Mostly Cloudy
Mostly Cloudy
57.0 °F
Feels Like 57.0 °F
N
0.0
Wind Variable Wind from SSW
Gusts 0.0 mph

Today
High -- | Low -- °F
--% Chance of Precip.
Yesterday
High -- | Low -- °F
Precip. -- in
7:33 AM 3:59 PM
New Moon, 0% visible
Pressure 29.95 in
Visibility -9999.0 miles
Clouds Mostly Cloudy 3700 ft
Mostly Cloudy 6000 ft
Dew Point 56 °F
Humidity 97%
Rainfall 0.00 in
Snow Depth Not available.
UV 0 out of 12
Pollen Not available.
Air Quality Not available.
Flu Activity Not available.
METAR EGXT 222050Z AUTO 22003KT 4300 BR BKN037/// BKN060/// 12/12 Q1014 RERA

More Conditions Fewer Conditions

Pressure 29.95 in
Visibility -9999.0 miles
Clouds Mostly Cloudy 3700 ft
Mostly Cloudy 6000 ft
Dew Point 56 °F
Humidity 97%
Rainfall 0.00 in
Snow Depth Not available.
UV 0 out of 12
Pollen Not available.
Air Quality Not available.
Flu Activity Not available.
METAR EGXT 222050Z AUTO 22003KT 4300 BR BKN037/// BKN060/// 12/12 Q1014 RERA

More Conditions Fewer Conditions

10-Day Weather Forecast

Almanac

Astronomy

Nov. 22, 2014 Rise Set
Actual Time
Civil Twilight
Nautical Twilight
Astronomical Twilight
Moon
Length of Visible Light
Length of Day
Tomorrow will be .
, % of the Moon is Illuminated

Today's Extremes

Country Highs Country Lows

Community

WunderPhotos

Upload Photos

1,772,914 photos uploaded!

WunderBlogs® & News

Nearby

Air Quality

  Air Quality AQ Index Pollutant
Not available.

Snow Depth

Station Depth Elevation

Earthquake Activity

City Distance Mag. Time & Date
Minimum magnitude displayed is 2.5.

Coastal Water Temperatures

Place Temperature

Nearby Weather Stations